Time;durP1;ratioP1;P1;durP2;ratioP2;P2;SDS_P1;SDS_P2;PMS_P1;PMS_P2;Temp;Humidity;BMP_temperature;BMP_pressure;BME280_temperature;BME280_humidity;BME280_pressure;Samples;Min_cycle;Max_cycle;Signal;HPM_P1;HPM_P2
2022/06/02 00:02:27;;;;;;;1.90;1.40;;;15.90;85.80;;;;;;4935819;28;20457;-91
2022/06/02 00:05:01;;;;;;;2.70;1.67;;;15.90;86.10;;;;;;4957155;28;20446;-92
2022/06/02 00:07:55;;;;;;;6.60;1.60;;;15.70;87.00;;;;;;4941926;28;21060;-92
2022/06/02 00:11:13;;;;;;;1.57;1.40;;;15.70;87.40;;;;;;4915338;28;20451;-91
2022/06/02 00:14:04;;;;;;;1.40;1.30;;;15.70;87.50;;;;;;4934412;28;20446;-90
2022/06/02 00:16:47;;;;;;;3.70;1.60;;;15.60;88.40;;;;;;4944893;28;22901;-91
2022/06/02 00:19:32;;;;;;;1.47;1.37;;;15.60;88.60;;;;;;4944909;28;20465;-90
2022/06/02 00:22:16;;;;;;;1.70;1.53;;;15.50;88.70;;;;;;4944176;28;20461;-90
2022/06/02 00:25:02;;;;;;;1.87;1.77;;;15.50;89.10;;;;;;4928761;28;20457;-91
2022/06/02 00:27:40;;;;;;;1.40;1.30;;;15.50;89.70;;;;;;4931451;28;21103;-90
2022/06/02 00:30:32;;;;;;;3.43;1.57;;;15.50;89.80;;;;;;4939559;28;20453;-92
2022/06/02 00:33:24;;;;;;;1.60;1.50;;;15.30;89.70;;;;;;4927423;28;20533;-90
2022/06/02 00:36:00;;;;;;;1.83;1.57;;;15.20;90.20;;;;;;4959920;28;20486;-89
2022/06/02 00:38:36;;;;;;;1.73;1.37;;;15.10;90.50;;;;;;4922236;28;20437;-89
2022/06/02 00:41:31;;;;;;;1.43;1.33;;;15.10;90.60;;;;;;4918538;28;20449;-89
2022/06/02 00:44:22;;;;;;;1.40;1.30;;;15.00;90.70;;;;;;4912592;28;20438;-88
2022/06/02 00:47:02;;;;;;;1.87;1.77;;;15.20;90.60;;;;;;4916484;28;20469;-90
2022/06/02 00:50:07;;;;;;;2.00;1.80;;;15.20;90.40;;;;;;4918432;28;20442;-90
2022/06/02 00:52:54;;;;;;;1.47;1.37;;;15.20;90.40;;;;;;4878493;28;20529;-90
2022/06/02 00:58:35;;;;;;;1.70;1.60;;;15.10;90.50;;;;;;4926522;28;20504;-90
2022/06/02 01:01:25;;;;;;;1.57;1.47;;;15.00;90.40;;;;;;4910556;28;20441;-90
2022/06/02 01:03:54;;;;;;;1.87;1.77;;;15.00;90.80;;;;;;4912354;28;20439;-90
2022/06/02 01:06:23;;;;;;;1.80;1.60;;;15.10;90.90;;;;;;4922436;28;20749;-90
2022/06/02 01:09:16;;;;;;;2.00;1.80;;;15.10;90.70;;;;;;4957014;28;20441;-90
2022/06/02 01:12:25;;;;;;;1.60;1.50;;;15.00;90.90;;;;;;4948811;28;20459;-89
2022/06/02 01:15:23;;;;;;;2.13;1.90;;;15.10;91.00;;;;;;4895967;28;20456;-90
2022/06/02 01:17:57;;;;;;;2.13;1.93;;;15.00;90.90;;;;;;4912542;28;21826;-90
2022/06/02 01:20:52;;;;;;;1.90;1.40;;;15.00;90.70;;;;;;4937334;28;20432;-90
2022/06/02 01:23:41;;;;;;;2.70;2.07;;;15.00;91.20;;;;;;4916912;28;20477;-90
2022/06/02 01:26:28;;;;;;;4.13;1.93;;;15.00;91.00;;;;;;4931087;28;20910;-90
2022/06/02 01:29:34;;;;;;;2.90;1.90;;;15.00;91.40;;;;;;4911977;28;20485;-90
2022/06/02 01:32:10;;;;;;;2.10;2.00;;;14.90;91.40;;;;;;4910802;28;20559;-90
2022/06/02 01:35:19;;;;;;;2.10;1.60;;;14.70;91.80;;;;;;4941868;28;20448;-90
2022/06/02 01:38:01;;;;;;;2.80;1.83;;;14.60;92.10;;;;;;4945850;28;20465;-90
2022/06/02 01:41:06;;;;;;;2.53;1.77;;;14.70;92.00;;;;;;4914677;28;20445;-90
2022/06/02 01:43:55;;;;;;;2.47;1.87;;;14.80;91.90;;;;;;4951280;28;20452;-89
2022/06/02 01:46:49;;;;;;;2.53;2.07;;;14.80;91.80;;;;;;4925385;28;21300;-89
2022/06/02 01:49:55;;;;;;;3.40;1.90;;;14.80;92.20;;;;;;4918586;28;20482;-89
2022/06/02 01:52:42;;;;;;;2.00;1.90;;;14.70;92.50;;;;;;4918969;28;20450;-89
2022/06/02 01:55:15;;;;;;;1.90;1.80;;;14.60;93.10;;;;;;4910158;28;20481;-89
2022/06/02 01:58:03;;;;;;;2.10;1.90;;;14.60;93.30;;;;;;4954650;28;20441;-90
2022/06/02 02:00:42;;;;;;;2.10;2.00;;;14.50;93.50;;;;;;4929527;28;20457;-89
2022/06/02 02:03:26;;;;;;;1.97;1.87;;;14.40;93.90;;;;;;4915550;28;20519;-90
2022/06/02 02:05:57;;;;;;;3.83;2.00;;;14.40;93.50;;;;;;4908761;28;21008;-89
2022/06/02 02:08:43;;;;;;;1.90;1.80;;;14.40;93.00;;;;;;4910418;28;20440;-89
2022/06/02 02:11:51;;;;;;;2.40;2.20;;;14.50;92.90;;;;;;4914184;28;20453;-89
2022/06/02 02:14:39;;;;;;;3.20;1.80;;;14.50;92.80;;;;;;4915221;28;20453;-90
2022/06/02 02:17:27;;;;;;;2.30;1.90;;;14.50;92.80;;;;;;4948195;28;20461;-89
2022/06/02 02:20:19;;;;;;;2.90;1.90;;;14.50;93.60;;;;;;4918964;28;20446;-90
2022/06/02 02:23:18;;;;;;;4.83;2.27;;;14.40;93.80;;;;;;4929837;28;20441;-91
2022/06/02 02:25:59;;;;;;;4.37;2.40;;;14.30;94.00;;;;;;4912829;28;20465;-91
2022/06/02 02:29:04;;;;;;;1.97;1.77;;;14.20;94.30;;;;;;4927065;28;20461;-91
2022/06/02 02:31:44;;;;;;;2.10;2.00;;;14.20;94.20;;;;;;4917664;28;20464;-91
2022/06/02 02:34:43;;;;;;;3.50;2.10;;;14.20;93.90;;;;;;4914990;28;20445;-90
2022/06/02 02:37:17;;;;;;;3.77;2.10;;;14.20;94.00;;;;;;4925791;28;20464;-90
2022/06/02 02:40:10;;;;;;;2.30;2.20;;;14.20;94.20;;;;;;4922078;28;20433;-90
2022/06/02 02:42:53;;;;;;;2.80;2.10;;;14.10;94.20;;;;;;4942079;28;20442;-90
2022/06/02 02:45:33;;;;;;;2.10;1.90;;;14.10;94.70;;;;;;4913240;28;20552;-90
2022/06/02 02:48:10;;;;;;;2.30;2.10;;;14.10;94.90;;;;;;4925096;28;20476;-90
2022/06/02 02:50:55;;;;;;;2.80;2.30;;;14.10;94.80;;;;;;4935070;28;20523;-89
2022/06/02 02:53:33;;;;;;;2.87;2.50;;;14.00;94.70;;;;;;4907091;28;20467;-88
2022/06/02 02:56:16;;;;;;;2.43;2.23;;;13.90;94.30;;;;;;4936446;28;20505;-89
2022/06/02 02:58:53;;;;;;;2.40;2.30;;;13.90;94.40;;;;;;4914386;28;20578;-89
2022/06/02 03:01:51;;;;;;;2.00;1.83;;;13.90;94.30;;;;;;4936171;28;20485;-89
2022/06/02 03:04:22;;;;;;;2.00;1.90;;;13.90;94.60;;;;;;4905017;28;20894;-90
2022/06/02 03:06:54;;;;;;;2.00;1.90;;;14.00;95.10;;;;;;4910606;28;20441;-90
2022/06/02 03:09:33;;;;;;;2.90;2.10;;;14.00;95.10;;;;;;4931416;28;20437;-89
2022/06/02 03:12:14;;;;;;;3.53;2.10;;;14.00;95.70;;;;;;4910716;28;20504;-90
2022/06/02 03:15:13;;;;;;;2.40;2.13;;;14.00;95.20;;;;;;4928121;28;20429;-89
2022/06/02 03:17:44;;;;;;;2.47;2.27;;;14.00;95.30;;;;;;4919552;28;21043;-91
2022/06/02 03:20:42;;;;;;;2.70;2.00;;;14.00;95.80;;;;;;4939227;28;21821;-90
2022/06/02 03:23:35;;;;;;;2.67;2.10;;;14.00;95.70;;;;;;4935675;28;20513;-89
2022/06/02 03:26:17;;;;;;;2.30;2.20;;;13.90;96.20;;;;;;4942900;28;20469;-90
2022/06/02 03:29:16;;;;;;;2.07;1.97;;;13.80;96.40;;;;;;4923957;28;20446;-90
2022/06/02 03:32:25;;;;;;;3.57;2.10;;;13.80;96.80;;;;;;4938449;28;20516;-90
2022/06/02 03:35:25;;;;;;;2.50;2.30;;;13.70;97.00;;;;;;4899720;28;20441;-90
2022/06/02 03:38:14;;;;;;;1.97;1.87;;;13.70;96.70;;;;;;4921534;28;20460;-90
2022/06/02 03:41:00;;;;;;;1.90;1.80;;;13.80;96.90;;;;;;4951168;28;20763;-89
2022/06/02 03:43:41;;;;;;;2.47;1.90;;;13.80;97.60;;;;;;4931133;28;20500;-91
2022/06/02 03:46:29;;;;;;;2.17;2.03;;;13.80;97.40;;;;;;4925501;28;20468;-90
2022/06/02 03:49:12;;;;;;;5.00;2.00;;;13.90;96.60;;;;;;4946867;28;20971;-91
2022/06/02 03:52:03;;;;;;;1.90;1.80;;;14.00;96.10;;;;;;4923179;28;20437;-91
2022/06/02 03:54:55;;;;;;;2.10;1.67;;;14.00;96.20;;;;;;4923216;28;20559;-91
2022/06/02 03:57:40;;;;;;;2.00;1.90;;;14.10;96.00;;;;;;4927856;28;20453;-93
2022/06/02 04:00:20;;;;;;;1.97;1.80;;;14.00;95.70;;;;;;4958403;28;20453;-91
2022/06/02 04:03:00;;;;;;;2.53;2.10;;;14.00;96.70;;;;;;4978319;28;20430;-90
2022/06/02 04:05:53;;;;;;;1.97;1.87;;;14.10;97.00;;;;;;4941513;28;20485;-90
2022/06/02 04:08:59;;;;;;;1.87;1.77;;;14.00;98.40;;;;;;4935942;28;20453;-91
2022/06/02 04:14:52;;;;;;;2.23;2.03;;;13.90;99.00;;;;;;4958810;28;21032;-90
2022/06/02 04:17:55;;;;;;;2.10;1.80;;;13.90;98.80;;;;;;4968799;28;20451;-91
2022/06/02 04:20:38;;;;;;;2.07;1.80;;;13.90;98.40;;;;;;4946823;28;20452;-91
2022/06/02 04:23:37;;;;;;;3.87;2.00;;;14.00;97.80;;;;;;4955622;28;21049;-91
2022/06/02 04:26:24;;;;;;;3.20;2.87;;;14.10;97.70;;;;;;4938721;28;20446;-90
2022/06/02 04:29:36;;;;;;;2.40;2.20;;;14.10;97.00;;;;;;4952872;28;20543;-90
2022/06/02 04:32:45;;;;;;;2.27;2.17;;;14.10;96.70;;;;;;4951264;28;20445;-90
2022/06/02 04:35:22;;;;;;;15.80;11.67;;;14.10;97.10;;;;;;4943999;28;20493;-90
2022/06/02 04:38:15;;;;;;;10.73;6.70;;;14.00;98.10;;;;;;4929277;28;20591;-88
2022/06/02 04:40:55;;;;;;;2.70;2.30;;;13.90;99.20;;;;;;4957775;28;20450;-91
2022/06/02 04:43:58;;;;;;;3.20;2.27;;;13.90;99.90;;;;;;4924093;28;20453;-89
2022/06/02 04:47:14;;;;;;;1.80;1.70;;;14.20;99.20;;;;;;4915417;28;20461;-88
2022/06/02 04:50:11;;;;;;;3.87;2.20;;;14.40;98.80;;;;;;4968597;28;21026;-90
2022/06/02 04:52:55;;;;;;;2.20;2.00;;;14.50;98.90;;;;;;4966963;28;20452;-88
2022/06/02 04:55:37;;;;;;;1.90;1.80;;;14.70;99.00;;;;;;4972273;28;20485;-88
2022/06/02 04:58:27;;;;;;;2.10;1.93;;;14.60;98.40;;;;;;4961020;28;20640;-88
2022/06/02 05:01:50;;;;;;;2.10;1.90;;;14.50;98.10;;;;;;4916584;28;20444;-88
2022/06/02 05:07:03;;;;;;;4.60;2.10;;;14.50;97.20;;;;;;5047266;23;20517;-86
2022/06/02 05:09:45;;;;;;;2.40;2.30;;;14.50;97.20;;;;;;4985411;28;20448;-87
2022/06/02 05:12:41;;;;;;;2.40;2.20;;;14.50;96.50;;;;;;4976932;28;21025;-88
2022/06/02 05:15:43;;;;;;;2.53;2.43;;;14.40;96.60;;;;;;4976848;28;20475;-89
2022/06/02 05:18:48;;;;;;;3.77;2.10;;;14.50;96.40;;;;;;4982679;28;20792;-88
2022/06/02 05:21:42;;;;;;;2.70;2.50;;;14.60;95.80;;;;;;4975548;28;21699;-89
2022/06/02 05:27:35;;;;;;;3.30;2.47;;;14.80;96.20;;;;;;4975863;28;20964;-88
2022/06/02 05:30:34;;;;;;;2.87;2.60;;;15.00;95.40;;;;;;4973500;28;20432;-88
2022/06/02 05:33:19;;;;;;;2.80;2.60;;;15.00;95.70;;;;;;4990773;28;20484;-88
2022/06/02 05:36:01;;;;;;;2.53;2.33;;;15.00;95.70;;;;;;4992729;28;20473;-88
2022/06/02 05:39:01;;;;;;;2.63;2.43;;;14.90;95.80;;;;;;4997510;28;20878;-88
2022/06/02 05:42:05;;;;;;;4.13;2.60;;;14.90;95.60;;;;;;4991159;28;24534;-88
2022/06/02 05:45:18;;;;;;;4.30;2.90;;;14.90;96.30;;;;;;4976464;28;20451;-87
2022/06/02 05:48:00;;;;;;;3.30;2.63;;;14.80;95.40;;;;;;4971669;28;20444;-87
2022/06/02 05:51:06;;;;;;;4.43;2.70;;;14.90;95.80;;;;;;4975857;28;20442;-88
2022/06/02 05:53:35;;;;;;;4.00;2.10;;;15.00;94.80;;;;;;4974178;28;20456;-88
2022/06/02 05:56:07;;;;;;;2.07;1.97;;;15.10;95.30;;;;;;4990785;28;20475;-87
2022/06/02 05:58:53;;;;;;;2.77;2.60;;;15.30;95.30;;;;;;4975282;28;20440;-87
2022/06/02 06:01:47;;;;;;;3.00;2.60;;;15.50;94.80;;;;;;4972120;28;20440;-87
2022/06/02 06:04:21;;;;;;;3.43;2.40;;;15.60;95.10;;;;;;4996306;28;20436;-88
2022/06/02 06:07:02;;;;;;;2.70;2.50;;;15.80;93.80;;;;;;4992535;28;20519;-88
2022/06/02 06:09:49;;;;;;;5.90;2.30;;;15.90;93.40;;;;;;4971259;28;20448;-88
2022/06/02 06:12:28;;;;;;;2.80;2.50;;;15.90;93.60;;;;;;4977356;28;20441;-88
2022/06/02 06:15:21;;;;;;;2.77;2.57;;;15.90;93.60;;;;;;4975190;28;20429;-88
2022/06/02 06:18:26;;;;;;;2.87;2.67;;;15.80;93.30;;;;;;4993745;28;20440;-87
2022/06/02 06:21:25;;;;;;;4.40;2.70;;;15.60;93.00;;;;;;4954528;28;20575;-88
2022/06/02 06:24:23;;;;;;;5.13;2.73;;;15.50;93.70;;;;;;4989895;28;20441;-88
2022/06/02 06:27:00;;;;;;;2.73;2.53;;;15.50;94.30;;;;;;4952073;28;21610;-87
2022/06/02 06:30:00;;;;;;;4.40;2.80;;;15.70;93.70;;;;;;4989330;28;20437;-88
2022/06/02 06:33:03;;;;;;;2.70;2.60;;;15.50;92.40;;;;;;4993228;28;20449;-88
2022/06/02 06:35:54;;;;;;;4.67;3.50;;;15.40;93.60;;;;;;4985476;28;20491;-88
2022/06/02 06:38:41;;;;;;;3.73;2.20;;;15.50;93.10;;;;;;4998145;28;20441;-88
2022/06/02 06:41:44;;;;;;;5.63;2.73;;;15.40;93.30;;;;;;5002421;28;20439;-89
2022/06/02 06:44:31;;;;;;;2.77;2.57;;;15.60;93.50;;;;;;5001067;28;20507;-90
2022/06/02 06:47:37;;;;;;;3.43;2.60;;;15.70;93.20;;;;;;4986891;28;20448;-89
2022/06/02 06:50:31;;;;;;;3.70;2.67;;;15.70;93.90;;;;;;4977751;28;20498;-91
2022/06/02 06:53:23;;;;;;;2.63;2.43;;;15.70;93.30;;;;;;4981145;28;20448;-92
2022/06/02 06:56:12;;;;;;;5.57;3.20;;;15.80;93.80;;;;;;4980374;28;20477;-91
2022/06/02 06:59:00;;;;;;;4.87;2.47;;;15.80;93.90;;;;;;4978223;28;20444;-91
2022/06/02 07:01:42;;;;;;;3.10;2.57;;;16.00;93.50;;;;;;4975654;28;20441;-92
2022/06/02 07:04:10;;;;;;;2.70;2.50;;;16.20;92.90;;;;;;4977499;28;20440;-91
2022/06/02 07:07:15;;;;;;;2.57;2.40;;;16.30;93.10;;;;;;4992788;28;20452;-91
2022/06/02 07:10:06;;;;;;;2.40;2.20;;;16.30;92.90;;;;;;4967764;28;20449;-91
2022/06/02 07:13:09;;;;;;;2.20;2.10;;;16.40;92.30;;;;;;4976261;28;20779;-89
2022/06/02 07:16:14;;;;;;;3.27;2.40;;;16.40;92.00;;;;;;4976180;28;20480;-89
2022/06/02 07:19:17;;;;;;;3.00;2.40;;;16.50;92.60;;;;;;4974764;28;20982;-88
2022/06/02 07:21:53;;;;;;;2.20;2.10;;;16.70;92.90;;;;;;4975407;28;20449;-90
2022/06/02 07:24:40;;;;;;;2.60;2.40;;;16.90;91.50;;;;;;4975757;28;20440;-90
2022/06/02 07:27:17;;;;;;;2.87;2.40;;;17.00;92.00;;;;;;4989684;28;21934;-90
2022/06/02 07:30:04;;;;;;;2.53;2.33;;;17.30;91.00;;;;;;4977417;28;20806;-91
2022/06/02 07:32:33;;;;;;;2.73;2.47;;;17.50;90.60;;;;;;4973270;28;20441;-91
2022/06/02 07:35:22;;;;;;;3.27;2.47;;;17.60;91.30;;;;;;4989278;28;20459;-91
2022/06/02 07:38:16;;;;;;;2.60;2.00;;;17.50;90.50;;;;;;4974044;28;20433;-90
2022/06/02 07:40:55;;;;;;;2.87;2.30;;;17.70;90.90;;;;;;4973767;28;20440;-90
2022/06/02 07:43:58;;;;;;;2.00;1.90;;;17.80;90.50;;;;;;4991732;28;20437;-91
2022/06/02 07:47:01;;;;;;;2.30;2.10;;;18.00;90.30;;;;;;4991678;28;20494;-90
2022/06/02 07:49:39;;;;;;;4.73;2.57;;;18.00;89.70;;;;;;4956465;28;20483;-89
2022/06/02 07:52:34;;;;;;;3.80;2.37;;;17.80;90.20;;;;;;4978778;28;20981;-90
2022/06/02 07:55:03;;;;;;;2.27;2.13;;;17.80;90.60;;;;;;4978874;28;20965;-91
2022/06/02 07:57:59;;;;;;;3.07;2.20;;;17.70;90.20;;;;;;4991884;28;20457;-89
2022/06/02 08:01:03;;;;;;;2.77;2.17;;;17.80;90.00;;;;;;4980311;28;20494;-88
2022/06/02 08:03:52;;;;;;;2.57;2.37;;;18.00;90.10;;;;;;4979792;28;20443;-88
2022/06/02 08:06:35;;;;;;;2.20;2.10;;;18.10;89.40;;;;;;4992534;28;20461;-88
2022/06/02 08:09:13;;;;;;;2.07;1.97;;;18.00;89.40;;;;;;4982641;28;20458;-88
2022/06/02 08:11:57;;;;;;;2.90;2.10;;;18.20;90.00;;;;;;4996675;28;20444;-87
2022/06/02 08:14:35;;;;;;;2.00;1.90;;;18.40;87.40;;;;;;4993451;28;20901;-91
2022/06/02 08:17:23;;;;;;;4.27;3.87;;;18.40;88.00;;;;;;4995594;28;20480;-88
2022/06/02 08:20:08;;;;;;;2.27;2.00;;;18.30;86.90;;;;;;4980979;28;20441;-88
2022/06/02 08:22:51;;;;;;;2.40;2.20;;;18.40;88.80;;;;;;4996340;28;20949;-88
2022/06/02 08:25:24;;;;;;;2.00;1.90;;;18.50;87.20;;;;;;4979553;28;20476;-92
2022/06/02 08:27:53;;;;;;;2.50;2.30;;;18.40;85.80;;;;;;4982715;28;20996;-91
2022/06/02 08:30:24;;;;;;;2.43;2.00;;;18.40;86.20;;;;;;4981260;28;20443;-90
2022/06/02 08:33:03;;;;;;;2.27;1.90;;;18.60;87.90;;;;;;4975658;28;20440;-86
2022/06/02 08:36:06;;;;;;;2.10;2.00;;;18.70;87.10;;;;;;4979851;28;20480;-90
2022/06/02 08:39:22;;;;;;;2.53;1.63;;;19.00;86.50;;;;;;4989911;28;20598;-92
2022/06/02 08:42:16;;;;;;;3.20;1.90;;;19.10;86.50;;;;;;4894837;29;20453;-90
2022/06/02 08:45:15;;;;;;;2.83;1.83;;;19.30;88.60;;;;;;4988203;28;20453;-90
2022/06/02 08:48:12;;;;;;;2.23;2.03;;;19.50;84.00;;;;;;4985089;28;20961;-90
2022/06/02 08:51:04;;;;;;;1.73;1.63;;;19.60;85.50;;;;;;4974462;28;20456;-90
2022/06/02 08:54:08;;;;;;;2.53;2.33;;;19.70;83.00;;;;;;4986905;28;20437;-93
2022/06/02 08:56:45;;;;;;;2.27;2.07;;;19.90;83.80;;;;;;4996482;28;20519;-91
2022/06/02 08:59:29;;;;;;;2.30;2.10;;;20.20;82.50;;;;;;4989588;28;20539;-91
2022/06/02 09:02:50;;;;;;;3.20;3.00;;;20.10;83.00;;;;;;4984381;28;20502;-95
2022/06/02 09:05:58;;;;;;;2.93;1.80;;;20.10;84.00;;;;;;4995495;28;21111;-95
2022/06/02 09:08:38;;;;;;;2.90;2.20;;;20.00;80.30;;;;;;4978021;28;20807;-90
2022/06/02 09:11:50;;;;;;;1.77;1.67;;;20.30;83.10;;;;;;4969359;28;20471;-87
2022/06/02 09:14:38;;;;;;;2.40;2.03;;;20.70;80.50;;;;;;4946971;28;20507;-88
2022/06/02 09:17:36;;;;;;;2.50;2.30;;;20.70;80.60;;;;;;4987909;28;20484;-91
2022/06/02 09:20:24;;;;;;;1.80;1.70;;;20.80;83.20;;;;;;4977639;28;20535;-90
2022/06/02 09:22:59;;;;;;;2.37;2.07;;;20.80;84.50;;;;;;4977812;28;20476;-90
2022/06/02 09:25:46;;;;;;;4.17;2.10;;;20.80;77.80;;;;;;4985406;28;20432;-88
2022/06/02 09:28:46;;;;;;;2.40;1.77;;;21.10;79.90;;;;;;4975573;28;20769;-87
2022/06/02 09:31:43;;;;;;;2.03;1.60;;;21.20;82.90;;;;;;4960446;28;20440;-90
2022/06/02 09:34:41;;;;;;;2.57;1.90;;;21.20;79.90;;;;;;4974465;28;20463;-91
2022/06/02 09:37:50;;;;;;;2.13;1.93;;;21.50;78.60;;;;;;4974369;28;21057;-87
2022/06/02 09:40:26;;;;;;;3.50;1.93;;;21.50;78.60;;;;;;4955165;28;20519;-86
2022/06/02 09:43:28;;;;;;;1.93;1.83;;;21.40;75.60;;;;;;4996328;28;20648;-88
2022/06/02 09:46:16;;;;;;;2.00;1.80;;;21.20;75.00;;;;;;4975041;28;20482;-87
2022/06/02 09:49:09;;;;;;;1.90;1.80;;;21.40;80.00;;;;;;4959130;28;21150;-86
2022/06/02 09:51:55;;;;;;;3.90;2.50;;;21.30;76.70;;;;;;4982765;28;20509;-89
2022/06/02 09:55:20;;;;;;;2.13;1.50;;;21.70;83.00;;;;;;4964997;28;21042;-89
2022/06/02 09:58:20;;;;;;;12.53;11.60;;;21.90;77.00;;;;;;4959978;28;21111;-90
2022/06/02 10:01:17;;;;;;;2.27;2.07;;;22.30;75.30;;;;;;4960282;28;20496;-89
2022/06/02 10:04:21;;;;;;;4.80;4.37;;;22.60;74.90;;;;;;4963156;28;20446;-93
2022/06/02 10:07:10;;;;;;;6.37;5.10;;;22.60;74.50;;;;;;4971737;28;20449;-89
2022/06/02 10:10:13;;;;;;;1.80;1.43;;;22.80;75.70;;;;;;4974238;28;20604;-88
2022/06/02 10:13:06;;;;;;;2.80;1.90;;;22.70;76.40;;;;;;4968324;28;20436;-90
2022/06/02 10:15:42;;;;;;;2.17;1.97;;;22.20;74.00;;;;;;4976649;28;20468;-91
2022/06/02 10:18:39;;;;;;;1.90;1.60;;;22.40;77.20;;;;;;4959969;28;20607;-87
2022/06/02 10:21:28;;;;;;;2.03;1.77;;;22.30;76.20;;;;;;4980042;28;20506;-88
2022/06/02 10:24:24;;;;;;;2.57;2.37;;;22.60;80.70;;;;;;4981855;28;20536;-91
2022/06/02 10:27:22;;;;;;;2.03;1.57;;;23.20;75.30;;;;;;4989174;28;20491;-91
2022/06/02 10:30:37;;;;;;;1.93;1.83;;;23.10;70.50;;;;;;4981582;28;21212;-89
2022/06/02 10:33:36;;;;;;;1.93;1.73;;;23.30;67.10;;;;;;4977273;28;20451;-86
2022/06/02 10:36:29;;;;;;;2.13;1.83;;;23.40;68.50;;;;;;4965643;28;20485;-88
2022/06/02 10:39:20;;;;;;;1.93;1.67;;;23.20;70.70;;;;;;4981908;28;20446;-87
2022/06/02 10:42:13;;;;;;;2.90;2.00;;;23.40;73.10;;;;;;4973589;28;20449;-87
2022/06/02 10:44:58;;;;;;;3.33;2.20;;;23.30;72.60;;;;;;4978587;28;20471;-88
2022/06/02 10:47:38;;;;;;;2.40;1.80;;;23.20;73.60;;;;;;4979648;28;20439;-89
2022/06/02 10:50:23;;;;;;;3.20;1.90;;;23.40;69.60;;;;;;4981408;28;20453;-89
2022/06/02 10:53:12;;;;;;;2.30;2.03;;;23.60;69.60;;;;;;4979638;28;20457;-85
2022/06/02 10:55:56;;;;;;;3.20;2.20;;;23.70;74.40;;;;;;4966308;28;20531;-90
2022/06/02 10:59:00;;;;;;;2.13;1.93;;;24.00;70.50;;;;;;4969260;28;20447;-89
2022/06/02 11:01:42;;;;;;;4.87;2.37;;;23.70;71.20;;;;;;4966805;28;21182;-90
2022/06/02 11:04:33;;;;;;;2.60;2.40;;;23.90;73.10;;;;;;4967019;28;20445;-87
2022/06/02 11:08:00;;;;;;;2.40;2.23;;;23.90;70.40;;;;;;4962115;28;20468;-89
2022/06/02 11:10:35;;;;;;;2.50;2.30;;;23.60;70.60;;;;;;4972315;28;21118;-89
2022/06/02 11:13:26;;;;;;;3.60;2.13;;;23.90;74.10;;;;;;4963488;28;20508;-89
2022/06/02 11:16:12;;;;;;;2.53;2.13;;;23.80;70.60;;;;;;4958433;28;20570;-85
2022/06/02 11:18:55;;;;;;;2.30;2.20;;;24.30;71.60;;;;;;4972793;28;20440;-85
2022/06/02 11:21:51;;;;;;;2.57;2.37;;;24.50;70.90;;;;;;4958522;28;20453;-88
2022/06/02 11:24:59;;;;;;;2.70;2.50;;;24.50;70.20;;;;;;4979372;28;20443;-86
2022/06/02 11:27:59;;;;;;;2.70;2.50;;;24.50;70.00;;;;;;4978760;28;20464;-84
2022/06/02 11:30:27;;;;;;;1.90;1.80;;;23.90;70.00;;;;;;4970563;28;20489;-87
2022/06/02 11:33:18;;;;;;;4.00;2.07;;;23.40;67.40;;;;;;4973441;28;20434;-86
2022/06/02 11:36:06;;;;;;;2.40;2.20;;;23.10;72.50;;;;;;4993681;28;20500;-86
2022/06/02 11:38:35;;;;;;;3.47;2.20;;;24.00;75.60;;;;;;4995218;28;20605;-87
2022/06/02 11:41:30;;;;;;;2.37;2.27;;;24.10;75.30;;;;;;4987095;28;20495;-86
2022/06/02 11:44:04;;;;;;;2.20;2.10;;;24.50;71.70;;;;;;4977961;28;20453;-86
2022/06/02 11:46:52;;;;;;;5.20;2.10;;;24.50;72.80;;;;;;4981146;28;20463;-85
2022/06/02 11:49:50;;;;;;;2.77;2.03;;;24.70;67.40;;;;;;4986896;28;20818;-85
2022/06/02 11:52:21;;;;;;;2.23;2.00;;;24.90;73.00;;;;;;4978029;28;20461;-85
2022/06/02 11:55:11;;;;;;;2.73;2.30;;;24.80;72.70;;;;;;4977452;28;20452;-89
2022/06/02 11:57:42;;;;;;;2.10;2.00;;;25.20;70.20;;;;;;4963323;28;20551;-87
2022/06/02 12:00:31;;;;;;;2.00;1.90;;;25.40;70.50;;;;;;4976182;28;20535;-87
2022/06/02 12:03:28;;;;;;;2.33;2.13;;;25.80;68.30;;;;;;4972642;28;21053;-89
2022/06/02 12:06:18;;;;;;;2.50;2.30;;;25.50;67.60;;;;;;4972026;28;20437;-86
2022/06/02 12:09:15;;;;;;;2.63;2.43;;;25.50;66.90;;;;;;4982558;28;21037;-87
2022/06/02 12:11:55;;;;;;;2.47;2.37;;;25.30;66.70;;;;;;4990584;28;20531;-83
2022/06/02 12:21:09;;;;;;;3.40;2.60;;;25.90;68.20;;;;;;4963840;28;21253;-88
2022/06/02 12:24:05;;;;;;;2.67;2.40;;;26.10;66.90;;;;;;4844505;29;21039;-89
2022/06/02 12:26:38;;;;;;;2.90;2.27;;;25.80;69.10;;;;;;4881125;29;22025;-85
2022/06/02 12:29:25;;;;;;;6.10;2.33;;;25.70;70.70;;;;;;4944877;28;20444;-87
2022/06/02 12:32:13;;;;;;;1.93;1.83;;;25.80;67.30;;;;;;5010075;28;20440;-86
2022/06/02 12:35:00;;;;;;;2.27;2.17;;;26.00;69.70;;;;;;4979258;28;20500;-86
2022/06/02 12:37:29;;;;;;;2.53;2.40;;;26.10;68.90;;;;;;4972463;28;20809;-87
2022/06/02 12:40:32;;;;;;;3.00;2.40;;;25.80;68.10;;;;;;4966976;28;20450;-87
2022/06/02 12:43:35;;;;;;;3.47;2.33;;;25.10;66.10;;;;;;4969561;28;20495;-86
2022/06/02 12:46:19;;;;;;;2.10;2.00;;;25.50;68.10;;;;;;4972657;28;20441;-87
2022/06/02 12:49:17;;;;;;;2.30;2.10;;;25.70;70.00;;;;;;4982290;28;20506;-85
2022/06/02 12:52:29;;;;;;;4.53;2.07;;;26.20;70.00;;;;;;4997648;28;20452;-87
2022/06/02 12:55:24;;;;;;;2.40;2.23;;;26.20;66.70;;;;;;4988528;28;20444;-87
2022/06/02 12:58:19;;;;;;;2.67;2.47;;;26.40;66.40;;;;;;4978514;28;20452;-87
2022/06/02 13:01:06;;;;;;;2.10;2.00;;;26.70;64.50;;;;;;4986126;28;20976;-87
2022/06/02 13:03:37;;;;;;;2.13;2.03;;;27.40;60.00;;;;;;5006888;28;20974;-87
2022/06/02 13:06:24;;;;;;;2.90;2.37;;;28.00;58.90;;;;;;4976826;28;20487;-87
2022/06/02 13:09:01;;;;;;;2.03;1.93;;;27.50;59.20;;;;;;4995102;28;20440;-86
2022/06/02 13:12:21;;;;;;;3.07;2.00;;;27.30;62.70;;;;;;4987513;28;20440;-88
2022/06/02 13:15:24;;;;;;;2.10;2.00;;;27.70;62.90;;;;;;4943054;28;20437;-86
2022/06/02 13:17:52;;;;;;;2.40;2.20;;;27.20;61.40;;;;;;4926383;28;20536;-87
2022/06/02 13:20:45;;;;;;;2.40;2.20;;;26.60;63.70;;;;;;4960556;28;20469;-86
2022/06/02 13:23:44;;;;;;;4.43;2.03;;;26.40;66.00;;;;;;4980532;28;20455;-84
2022/06/02 13:26:50;;;;;;;2.43;2.23;;;26.60;67.00;;;;;;4975904;28;20455;-82
2022/06/02 13:29:37;;;;;;;2.30;2.10;;;27.20;59.60;;;;;;4937395;28;20852;-82
2022/06/02 13:32:23;;;;;;;2.63;2.30;;;27.30;62.60;;;;;;4961394;28;20445;-82
2022/06/02 13:35:07;;;;;;;3.03;2.17;;;27.20;61.60;;;;;;4975837;28;20519;-82
2022/06/02 13:37:48;;;;;;;2.83;2.27;;;27.00;62.00;;;;;;4980046;28;21149;-82
2022/06/02 13:40:33;;;;;;;2.20;2.10;;;26.60;63.20;;;;;;4969823;28;21045;-82
2022/06/02 13:43:16;;;;;;;4.70;2.70;;;26.00;59.60;;;;;;4953450;28;20870;-82
2022/06/02 13:45:54;;;;;;;2.10;2.00;;;25.90;63.20;;;;;;4980084;28;20447;-84
2022/06/02 13:48:34;;;;;;;3.10;2.20;;;25.90;62.20;;;;;;4975088;28;20443;-84
2022/06/02 13:51:40;;;;;;;2.43;2.23;;;25.70;62.70;;;;;;4968580;28;20453;-84
2022/06/02 13:57:46;;;;;;;3.43;2.67;;;24.80;63.30;;;;;;4950906;28;20551;-84
2022/06/02 14:00:26;;;;;;;2.23;2.10;;;24.30;63.50;;;;;;4963034;28;20706;-85
2022/06/02 14:03:23;;;;;;;2.40;2.20;;;24.20;64.40;;;;;;4959917;28;20484;-84
2022/06/02 14:06:25;;;;;;;2.30;2.10;;;24.50;67.70;;;;;;4958802;28;20989;-84
2022/06/02 14:09:10;;;;;;;3.93;2.30;;;24.60;66.90;;;;;;4961516;28;20678;-84
2022/06/02 14:11:53;;;;;;;2.03;1.93;;;25.20;65.80;;;;;;4948711;28;20998;-84
2022/06/02 14:14:43;;;;;;;2.73;2.07;;;26.10;68.60;;;;;;4951512;28;20452;-84
2022/06/02 14:17:57;;;;;;;2.27;2.00;;;27.90;65.70;;;;;;4949528;28;20496;-83
2022/06/02 14:20:54;;;;;;;3.83;2.00;;;28.60;59.00;;;;;;4973337;28;20548;-82
2022/06/02 14:26:51;;;;;;;1.73;1.63;;;27.40;56.30;;;;;;4919231;28;20441;-83
2022/06/02 14:29:40;;;;;;;2.40;2.20;;;26.10;60.10;;;;;;4941438;28;20441;-82
2022/06/02 14:32:19;;;;;;;2.37;2.07;;;25.60;63.30;;;;;;4946726;28;20474;-81
2022/06/02 14:35:04;;;;;;;2.30;2.00;;;25.20;64.70;;;;;;4984016;28;20511;-82
2022/06/02 14:37:37;;;;;;;2.40;2.30;;;24.60;67.90;;;;;;4954538;28;20516;-81
2022/06/02 14:40:12;;;;;;;2.23;2.03;;;24.40;68.20;;;;;;4978212;28;20479;-81
2022/06/02 14:43:04;;;;;;;2.60;2.40;;;24.20;66.20;;;;;;4965170;28;20851;-82
2022/06/02 14:46:00;;;;;;;2.57;2.37;;;24.20;67.50;;;;;;4955620;28;20858;-82
2022/06/02 14:48:53;;;;;;;2.40;2.30;;;23.90;69.20;;;;;;4966089;28;20540;-82
2022/06/02 14:51:48;;;;;;;2.77;2.23;;;23.70;69.40;;;;;;4966547;28;21757;-81
2022/06/02 14:54:46;;;;;;;2.83;2.60;;;23.50;68.20;;;;;;4951984;28;20444;-81
2022/06/02 14:57:33;;;;;;;2.33;2.23;;;23.20;68.90;;;;;;4944068;28;21333;-81
2022/06/02 15:00:29;;;;;;;2.37;2.23;;;23.00;69.10;;;;;;4963509;28;21463;-81
2022/06/02 15:03:17;;;;;;;2.57;2.37;;;22.90;71.50;;;;;;4933622;28;20444;-81
2022/06/02 15:05:55;;;;;;;2.50;2.40;;;22.90;72.10;;;;;;4963753;28;21161;-81
2022/06/02 15:08:42;;;;;;;2.50;2.40;;;22.90;71.40;;;;;;4938949;28;20481;-81